sensor_id;sensor_type;location;lat;lon;timestamp;temperature;humidity
5639;DHT22;2841;44.526;11.360;2023-06-22T10:51:16;34.20;49.10
5639;DHT22;2841;44.526;11.360;2023-06-22T10:53:44;34.10;49.00
5639;DHT22;2841;44.526;11.360;2023-06-22T10:56:11;34.20;48.70
5639;DHT22;2841;44.526;11.360;2023-06-22T10:58:38;34.40;48.80
5639;DHT22;2841;44.526;11.360;2023-06-22T11:01:06;34.50;48.30
5639;DHT22;2841;44.526;11.360;2023-06-22T11:03:33;34.70;47.80
5639;DHT22;2841;44.526;11.360;2023-06-22T11:06:04;34.80;47.00
5639;DHT22;2841;44.526;11.360;2023-06-22T11:08:32;34.90;46.90
5639;DHT22;2841;44.526;11.360;2023-06-22T11:11:02;35.00;47.50
5639;DHT22;2841;44.526;11.360;2023-06-22T11:13:29;35.10;47.20
5639;DHT22;2841;44.526;11.360;2023-06-22T11:15:56;35.10;47.10
5639;DHT22;2841;44.526;11.360;2023-06-22T11:18:23;35.30;47.30
5639;DHT22;2841;44.526;11.360;2023-06-22T11:20:50;35.50;47.70
5639;DHT22;2841;44.526;11.360;2023-06-22T11:23:17;35.70;47.80
5639;DHT22;2841;44.526;11.360;2023-06-22T11:25:46;35.70;47.70
5639;DHT22;2841;44.526;11.360;2023-06-22T11:28:13;35.80;47.80
5639;DHT22;2841;44.526;11.360;2023-06-22T11:30:40;35.80;47.70
5639;DHT22;2841;44.526;11.360;2023-06-22T11:33:07;36.00;48.00
5639;DHT22;2841;44.526;11.360;2023-06-22T11:35:34;36.00;47.20
5639;DHT22;2841;44.526;11.360;2023-06-22T11:38:01;36.10;47.00
5639;DHT22;2841;44.526;11.360;2023-06-22T11:40:29;36.10;46.80
5639;DHT22;2841;44.526;11.360;2023-06-22T11:42:58;36.40;46.80
5639;DHT22;2841;44.526;11.360;2023-06-22T11:45:25;36.40;46.20
5639;DHT22;2841;44.526;11.360;2023-06-22T11:47:52;36.50;46.20
5639;DHT22;2841;44.526;11.360;2023-06-22T11:50:19;36.70;46.00
5639;DHT22;2841;44.526;11.360;2023-06-22T11:52:46;36.90;45.50
5639;DHT22;2841;44.526;11.360;2023-06-22T11:55:14;37.10;45.00
5639;DHT22;2841;44.526;11.360;2023-06-22T11:57:53;37.30;44.90
5639;DHT22;2841;44.526;11.360;2023-06-22T12:00:23;37.40;44.50
5639;DHT22;2841;44.526;11.360;2023-06-22T12:02:50;37.50;44.20
5639;DHT22;2841;44.526;11.360;2023-06-22T12:05:18;37.50;43.70
5639;DHT22;2841;44.526;11.360;2023-06-22T12:07:46;37.60;43.60
5639;DHT22;2841;44.526;11.360;2023-06-22T12:10:13;37.70;43.60
5639;DHT22;2841;44.526;11.360;2023-06-22T12:12:40;37.70;43.30
5639;DHT22;2841;44.526;11.360;2023-06-22T12:15:09;37.90;43.60
5639;DHT22;2841;44.526;11.360;2023-06-22T12:17:37;38.10;43.60
5639;DHT22;2841;44.526;11.360;2023-06-22T12:20:06;38.30;43.40
5639;DHT22;2841;44.526;11.360;2023-06-22T12:22:34;38.30;43.30
5639;DHT22;2841;44.526;11.360;2023-06-22T12:25:03;38.40;42.80
5639;DHT22;2841;44.526;11.360;2023-06-22T12:27:30;38.40;42.50
5639;DHT22;2841;44.526;11.360;2023-06-22T12:29:58;38.40;42.30
5639;DHT22;2841;44.526;11.360;2023-06-22T12:32:25;38.50;42.00
5639;DHT22;2841;44.526;11.360;2023-06-22T12:34:53;38.60;42.00
5639;DHT22;2841;44.526;11.360;2023-06-22T12:37:21;38.80;41.80
5639;DHT22;2841;44.526;11.360;2023-06-22T12:39:48;38.90;41.60
5639;DHT22;2841;44.526;11.360;2023-06-22T12:42:16;38.90;41.10
5639;DHT22;2841;44.526;11.360;2023-06-22T12:44:43;38.90;40.90
5639;DHT22;2841;44.526;11.360;2023-06-22T12:47:11;39.00;41.10
5639;DHT22;2841;44.526;11.360;2023-06-22T12:49:38;39.10;40.90
5639;DHT22;2841;44.526;11.360;2023-06-22T12:52:10;39.20;40.60
5639;DHT22;2841;44.526;11.360;2023-06-22T12:54:37;39.10;40.40
5639;DHT22;2841;44.526;11.360;2023-06-22T12:57:05;38.90;40.20
5639;DHT22;2841;44.526;11.360;2023-06-22T12:59:32;39.00;40.50
5639;DHT22;2841;44.526;11.360;2023-06-22T13:01:59;39.20;40.40
5639;DHT22;2841;44.526;11.360;2023-06-22T13:04:27;39.30;40.20
5639;DHT22;2841;44.526;11.360;2023-06-22T13:06:54;39.30;39.60
5639;DHT22;2841;44.526;11.360;2023-06-22T13:09:22;39.40;39.40
5639;DHT22;2841;44.526;11.360;2023-06-22T13:11:50;39.50;39.70
5639;DHT22;2841;44.526;11.360;2023-06-22T13:14:18;39.70;39.80
5639;DHT22;2841;44.526;11.360;2023-06-22T13:16:45;39.90;39.70
5639;DHT22;2841;44.526;11.360;2023-06-22T13:19:12;39.90;39.20
5639;DHT22;2841;44.526;11.360;2023-06-22T13:21:40;40.00;38.80
5639;DHT22;2841;44.526;11.360;2023-06-22T13:24:07;40.00;38.90
5639;DHT22;2841;44.526;11.360;2023-06-22T13:26:36;39.90;39.30
5639;DHT22;2841;44.526;11.360;2023-06-22T13:29:03;39.70;39.30
5639;DHT22;2841;44.526;11.360;2023-06-22T13:31:30;39.30;39.50
5639;DHT22;2841;44.526;11.360;2023-06-22T13:33:58;39.10;40.10
5639;DHT22;2841;44.526;11.360;2023-06-22T13:36:28;39.00;40.10
5639;DHT22;2841;44.526;11.360;2023-06-22T13:38:56;38.80;39.80
5639;DHT22;2841;44.526;11.360;2023-06-22T13:41:23;38.90;39.90
5639;DHT22;2841;44.526;11.360;2023-06-22T13:43:51;39.10;39.80
5639;DHT22;2841;44.526;11.360;2023-06-22T13:46:19;39.30;39.50
5639;DHT22;2841;44.526;11.360;2023-06-22T13:48:46;39.50;39.20
5639;DHT22;2841;44.526;11.360;2023-06-22T13:51:14;39.60;38.90
5639;DHT22;2841;44.526;11.360;2023-06-22T13:53:42;39.70;38.70
5639;DHT22;2841;44.526;11.360;2023-06-22T13:56:09;39.90;38.40
5639;DHT22;2841;44.526;11.360;2023-06-22T13:58:36;39.90;38.40
5639;DHT22;2841;44.526;11.360;2023-06-22T14:01:05;39.90;38.70
5639;DHT22;2841;44.526;11.360;2023-06-22T14:03:32;39.70;38.80
5639;DHT22;2841;44.526;11.360;2023-06-22T14:05:59;39.60;38.90
5639;DHT22;2841;44.526;11.360;2023-06-22T14:08:28;39.50;39.00
5639;DHT22;2841;44.526;11.360;2023-06-22T14:10:55;39.50;39.30
5639;DHT22;2841;44.526;11.360;2023-06-22T14:13:22;39.50;39.90
5639;DHT22;2841;44.526;11.360;2023-06-22T14:15:49;39.80;39.70
5639;DHT22;2841;44.526;11.360;2023-06-22T14:18:19;40.30;39.40
5639;DHT22;2841;44.526;11.360;2023-06-22T14:20:49;40.40;39.00
5639;DHT22;2841;44.526;11.360;2023-06-22T14:23:17;40.30;38.70
5639;DHT22;2841;44.526;11.360;2023-06-22T14:25:45;40.30;38.70
5639;DHT22;2841;44.526;11.360;2023-06-22T14:28:12;40.20;38.70
5639;DHT22;2841;44.526;11.360;2023-06-22T14:30:42;39.90;39.10
5639;DHT22;2841;44.526;11.360;2023-06-22T14:33:12;39.40;39.70
5639;DHT22;2841;44.526;11.360;2023-06-22T14:35:41;38.80;40.40
5639;DHT22;2841;44.526;11.360;2023-06-22T14:38:09;38.30;41.10
5639;DHT22;2841;44.526;11.360;2023-06-22T14:40:37;38.00;41.80
5639;DHT22;2841;44.526;11.360;2023-06-22T14:43:05;37.90;42.00
5639;DHT22;2841;44.526;11.360;2023-06-22T14:45:32;37.80;42.40
5639;DHT22;2841;44.526;11.360;2023-06-22T14:47:59;37.60;42.90
5639;DHT22;2841;44.526;11.360;2023-06-22T14:50:27;37.50;43.50
5639;DHT22;2841;44.526;11.360;2023-06-22T14:52:56;37.30;43.90
5639;DHT22;2841;44.526;11.360;2023-06-22T14:55:23;37.20;44.40
5639;DHT22;2841;44.526;11.360;2023-06-22T14:57:51;37.40;44.50
5639;DHT22;2841;44.526;11.360;2023-06-22T15:00:19;37.60;44.50
5639;DHT22;2841;44.526;11.360;2023-06-22T15:02:46;37.50;44.70
5639;DHT22;2841;44.526;11.360;2023-06-22T15:05:19;37.40;45.20
5639;DHT22;2841;44.526;11.360;2023-06-22T15:07:50;37.30;45.60
5639;DHT22;2841;44.526;11.360;2023-06-22T15:10:19;37.30;46.00
5639;DHT22;2841;44.526;11.360;2023-06-22T15:12:46;37.30;46.00
5639;DHT22;2841;44.526;11.360;2023-06-22T15:15:14;37.30;46.20
5639;DHT22;2841;44.526;11.360;2023-06-22T15:17:46;37.30;46.40
5639;DHT22;2841;44.526;11.360;2023-06-22T15:20:16;37.20;46.60
5639;DHT22;2841;44.526;11.360;2023-06-22T15:22:43;37.00;46.80
5639;DHT22;2841;44.526;11.360;2023-06-22T15:25:13;36.90;47.00
5639;DHT22;2841;44.526;11.360;2023-06-22T15:27:42;36.80;47.20
5639;DHT22;2841;44.526;11.360;2023-06-22T15:30:10;36.70;47.60
5639;DHT22;2841;44.526;11.360;2023-06-22T15:32:38;36.60;47.80
5639;DHT22;2841;44.526;11.360;2023-06-22T15:35:06;36.40;47.90
5639;DHT22;2841;44.526;11.360;2023-06-22T15:37:33;36.20;48.20
5639;DHT22;2841;44.526;11.360;2023-06-22T15:40:01;36.10;48.60
5639;DHT22;2841;44.526;11.360;2023-06-22T15:42:28;36.00;48.70
5639;DHT22;2841;44.526;11.360;2023-06-22T15:44:57;36.00;48.40
5639;DHT22;2841;44.526;11.360;2023-06-22T15:47:23;35.90;46.90
5639;DHT22;2841;44.526;11.360;2023-06-22T15:49:51;35.90;45.70
5639;DHT22;2841;44.526;11.360;2023-06-22T15:52:18;35.90;44.40
5639;DHT22;2841;44.526;11.360;2023-06-22T15:54:45;35.90;44.10
5639;DHT22;2841;44.526;11.360;2023-06-22T15:57:12;35.80;44.10
5639;DHT22;2841;44.526;11.360;2023-06-22T15:59:39;35.70;44.40
5639;DHT22;2841;44.526;11.360;2023-06-22T16:02:08;35.60;44.50
5639;DHT22;2841;44.526;11.360;2023-06-22T16:04:36;35.60;44.60
5639;DHT22;2841;44.526;11.360;2023-06-22T16:07:03;35.60;44.90
5639;DHT22;2841;44.526;11.360;2023-06-22T16:09:31;35.50;45.10
5639;DHT22;2841;44.526;11.360;2023-06-22T16:11:58;35.60;45.10
5639;DHT22;2841;44.526;11.360;2023-06-22T16:14:25;35.60;45.00
5639;DHT22;2841;44.526;11.360;2023-06-22T16:16:52;35.60;45.00
5639;DHT22;2841;44.526;11.360;2023-06-22T16:19:21;35.60;45.00
5639;DHT22;2841;44.526;11.360;2023-06-22T16:21:47;35.60;45.00
5639;DHT22;2841;44.526;11.360;2023-06-22T16:24:15;35.50;45.50
5639;DHT22;2841;44.526;11.360;2023-06-22T16:26:43;35.40;45.40
5639;DHT22;2841;44.526;11.360;2023-06-22T16:29:12;35.30;45.40
5639;DHT22;2841;44.526;11.360;2023-06-22T16:31:39;35.20;45.40
5639;DHT22;2841;44.526;11.360;2023-06-22T16:34:06;35.20;45.50
5639;DHT22;2841;44.526;11.360;2023-06-22T16:36:35;35.10;45.70
5639;DHT22;2841;44.526;11.360;2023-06-22T16:39:02;35.00;45.70
5639;DHT22;2841;44.526;11.360;2023-06-22T16:41:30;35.00;45.80
5639;DHT22;2841;44.526;11.360;2023-06-22T16:43:57;34.90;46.20
5639;DHT22;2841;44.526;11.360;2023-06-22T16:46:31;34.80;46.60
5639;DHT22;2841;44.526;11.360;2023-06-22T16:48:58;34.70;47.00
5639;DHT22;2841;44.526;11.360;2023-06-22T16:51:25;34.70;47.30
5639;DHT22;2841;44.526;11.360;2023-06-22T16:53:55;34.60;47.70
5639;DHT22;2841;44.526;11.360;2023-06-22T16:56:24;34.50;48.50
5639;DHT22;2841;44.526;11.360;2023-06-22T16:58:53;34.30;49.20
5639;DHT22;2841;44.526;11.360;2023-06-22T17:01:23;34.30;50.30
5639;DHT22;2841;44.526;11.360;2023-06-22T17:04:06;34.10;51.10
5639;DHT22;2841;44.526;11.360;2023-06-22T17:06:34;34.00;51.80
5639;DHT22;2841;44.526;11.360;2023-06-22T17:09:03;33.80;52.20
5639;DHT22;2841;44.526;11.360;2023-06-22T17:11:31;33.80;52.80
5639;DHT22;2841;44.526;11.360;2023-06-22T17:13:58;33.70;53.10
5639;DHT22;2841;44.526;11.360;2023-06-22T17:16:29;33.60;53.50
5639;DHT22;2841;44.526;11.360;2023-06-22T17:18:58;33.50;54.10
5639;DHT22;2841;44.526;11.360;2023-06-22T17:21:29;33.40;54.40
5639;DHT22;2841;44.526;11.360;2023-06-22T17:24:01;33.40;55.10
5639;DHT22;2841;44.526;11.360;2023-06-22T17:26:30;33.30;55.40
5639;DHT22;2841;44.526;11.360;2023-06-22T17:28:57;33.10;55.80
5639;DHT22;2841;44.526;11.360;2023-06-22T17:31:35;33.10;56.20
5639;DHT22;2841;44.526;11.360;2023-06-22T17:34:07;33.10;56.70
5639;DHT22;2841;44.526;11.360;2023-06-22T17:36:40;32.90;56.90
5639;DHT22;2841;44.526;11.360;2023-06-22T17:39:11;32.90;57.20
5639;DHT22;2841;44.526;11.360;2023-06-22T17:41:42;32.80;57.50
5639;DHT22;2841;44.526;11.360;2023-06-22T17:44:11;32.70;57.80
5639;DHT22;2841;44.526;11.360;2023-06-22T17:46:41;32.70;58.10
5639;DHT22;2841;44.526;11.360;2023-06-22T17:49:10;32.70;58.20
5639;DHT22;2841;44.526;11.360;2023-06-22T17:51:39;32.60;58.30
5639;DHT22;2841;44.526;11.360;2023-06-22T17:54:07;32.60;58.50
5639;DHT22;2841;44.526;11.360;2023-06-22T17:56:35;32.50;58.70
5639;DHT22;2841;44.526;11.360;2023-06-22T17:59:03;32.50;58.80
5639;DHT22;2841;44.526;11.360;2023-06-22T18:01:31;32.50;59.00
5639;DHT22;2841;44.526;11.360;2023-06-22T18:04:01;32.40;59.20
5639;DHT22;2841;44.526;11.360;2023-06-22T18:06:33;32.40;59.50
5639;DHT22;2841;44.526;11.360;2023-06-22T18:09:03;32.40;59.80
5639;DHT22;2841;44.526;11.360;2023-06-22T18:11:37;32.40;59.70
5639;DHT22;2841;44.526;11.360;2023-06-22T18:14:07;32.40;59.80
5639;DHT22;2841;44.526;11.360;2023-06-22T18:16:34;32.30;60.00
5639;DHT22;2841;44.526;11.360;2023-06-22T18:19:02;32.20;60.20
5639;DHT22;2841;44.526;11.360;2023-06-22T18:21:30;32.10;60.60
5639;DHT22;2841;44.526;11.360;2023-06-22T18:23:57;32.00;60.90
5639;DHT22;2841;44.526;11.360;2023-06-22T18:26:25;32.00;61.10
5639;DHT22;2841;44.526;11.360;2023-06-22T18:28:55;31.90;61.20
5639;DHT22;2841;44.526;11.360;2023-06-22T18:31:24;31.80;61.40
5639;DHT22;2841;44.526;11.360;2023-06-22T18:33:53;31.70;61.70
5639;DHT22;2841;44.526;11.360;2023-06-22T18:36:24;31.60;62.20
5639;DHT22;2841;44.526;11.360;2023-06-22T18:38:52;31.60;62.60
5639;DHT22;2841;44.526;11.360;2023-06-22T18:41:23;31.60;62.90
5639;DHT22;2841;44.526;11.360;2023-06-22T18:43:54;31.50;63.10
5639;DHT22;2841;44.526;11.360;2023-06-22T18:46:32;31.50;63.30
5639;DHT22;2841;44.526;11.360;2023-06-22T18:49:12;31.40;63.60
5639;DHT22;2841;44.526;11.360;2023-06-22T18:52:02;31.40;63.80
5639;DHT22;2841;44.526;11.360;2023-06-22T18:54:33;31.30;64.20
5639;DHT22;2841;44.526;11.360;2023-06-22T18:57:01;31.20;64.40
5639;DHT22;2841;44.526;11.360;2023-06-22T18:59:44;31.10;64.70
5639;DHT22;2841;44.526;11.360;2023-06-22T19:02:13;31.10;65.00
5639;DHT22;2841;44.526;11.360;2023-06-22T19:04:42;31.10;65.90
5639;DHT22;2841;44.526;11.360;2023-06-22T19:07:09;31.00;65.30
5639;DHT22;2841;44.526;11.360;2023-06-22T19:09:38;31.00;65.50
5639;DHT22;2841;44.526;11.360;2023-06-22T19:12:18;30.90;65.70
5639;DHT22;2841;44.526;11.360;2023-06-22T19:15:12;30.90;65.80
5639;DHT22;2841;44.526;11.360;2023-06-22T19:17:42;30.90;65.80
5639;DHT22;2841;44.526;11.360;2023-06-22T19:20:11;30.90;65.60
5639;DHT22;2841;44.526;11.360;2023-06-22T19:22:53;30.90;65.60
5639;DHT22;2841;44.526;11.360;2023-06-22T19:25:21;30.90;65.50
5639;DHT22;2841;44.526;11.360;2023-06-22T19:27:50;30.90;65.80
5639;DHT22;2841;44.526;11.360;2023-06-22T19:30:20;30.90;65.40
5639;DHT22;2841;44.526;11.360;2023-06-22T19:32:48;30.90;64.40
5639;DHT22;2841;44.526;11.360;2023-06-22T19:35:16;30.90;63.30
5639;DHT22;2841;44.526;11.360;2023-06-22T19:37:45;31.00;62.40
5639;DHT22;2841;44.526;11.360;2023-06-22T19:40:13;31.00;61.30
5639;DHT22;2841;44.526;11.360;2023-06-22T19:42:41;31.00;59.10
5639;DHT22;2841;44.526;11.360;2023-06-22T19:45:15;31.10;57.90
5639;DHT22;2841;44.526;11.360;2023-06-22T19:47:44;31.20;57.10
5639;DHT22;2841;44.526;11.360;2023-06-22T19:50:12;31.20;56.50
5639;DHT22;2841;44.526;11.360;2023-06-22T19:52:41;31.20;55.90
5639;DHT22;2841;44.526;11.360;2023-06-22T19:55:09;31.20;55.20
5639;DHT22;2841;44.526;11.360;2023-06-22T19:57:40;31.20;54.70
5639;DHT22;2841;44.526;11.360;2023-06-22T20:00:11;31.20;54.10
5639;DHT22;2841;44.526;11.360;2023-06-22T20:02:44;31.20;53.80
5639;DHT22;2841;44.526;11.360;2023-06-22T20:05:12;31.20;53.30
5639;DHT22;2841;44.526;11.360;2023-06-22T20:07:40;31.10;53.10
5639;DHT22;2841;44.526;11.360;2023-06-22T20:10:13;31.10;52.90
5639;DHT22;2841;44.526;11.360;2023-06-22T20:12:40;31.00;53.00
5639;DHT22;2841;44.526;11.360;2023-06-22T20:15:20;31.00;52.30
5639;DHT22;2841;44.526;11.360;2023-06-22T20:18:01;31.00;51.90
5639;DHT22;2841;44.526;11.360;2023-06-22T20:20:30;31.00;50.90
5639;DHT22;2841;44.526;11.360;2023-06-22T20:23:01;31.00;50.50
5639;DHT22;2841;44.526;11.360;2023-06-22T20:25:30;31.00;49.30
5639;DHT22;2841;44.526;11.360;2023-06-22T20:28:04;31.00;47.50
5639;DHT22;2841;44.526;11.360;2023-06-22T20:30:32;31.10;46.00
5639;DHT22;2841;44.526;11.360;2023-06-22T20:33:01;31.10;45.50
5639;DHT22;2841;44.526;11.360;2023-06-22T20:35:31;31.10;44.80
5639;DHT22;2841;44.526;11.360;2023-06-22T20:37:59;31.20;44.40
5639;DHT22;2841;44.526;11.360;2023-06-22T20:40:27;31.20;43.30
5639;DHT22;2841;44.526;11.360;2023-06-22T20:42:55;31.20;43.20
5639;DHT22;2841;44.526;11.360;2023-06-22T20:45:22;31.10;42.60
5639;DHT22;2841;44.526;11.360;2023-06-22T20:47:51;31.10;42.00
5639;DHT22;2841;44.526;11.360;2023-06-22T20:50:20;31.10;42.00
5639;DHT22;2841;44.526;11.360;2023-06-22T20:52:47;31.00;42.00
5639;DHT22;2841;44.526;11.360;2023-06-22T20:55:17;31.00;42.00
5639;DHT22;2841;44.526;11.360;2023-06-22T20:57:44;31.00;41.90
5639;DHT22;2841;44.526;11.360;2023-06-22T21:00:12;30.90;41.90
5639;DHT22;2841;44.526;11.360;2023-06-22T21:02:40;30.90;41.90
5639;DHT22;2841;44.526;11.360;2023-06-22T21:05:09;30.90;42.00
5639;DHT22;2841;44.526;11.360;2023-06-22T21:07:38;30.90;42.00
5639;DHT22;2841;44.526;11.360;2023-06-22T21:10:06;30.90;42.00
5639;DHT22;2841;44.526;11.360;2023-06-22T21:12:33;30.80;42.10
5639;DHT22;2841;44.526;11.360;2023-06-22T21:15:01;30.80;42.30
5639;DHT22;2841;44.526;11.360;2023-06-22T21:17:30;30.70;42.50
5639;DHT22;2841;44.526;11.360;2023-06-22T21:19:57;30.70;42.60
5639;DHT22;2841;44.526;11.360;2023-06-22T21:22:24;30.70;42.60
5639;DHT22;2841;44.526;11.360;2023-06-22T21:25:05;30.60;42.40
5639;DHT22;2841;44.526;11.360;2023-06-22T21:27:33;30.60;41.70
5639;DHT22;2841;44.526;11.360;2023-06-22T21:30:00;30.60;41.00
5639;DHT22;2841;44.526;11.360;2023-06-22T21:32:27;30.60;40.50
5639;DHT22;2841;44.526;11.360;2023-06-22T21:34:55;30.60;40.20
5639;DHT22;2841;44.526;11.360;2023-06-22T21:37:22;30.60;39.80
5639;DHT22;2841;44.526;11.360;2023-06-22T21:39:49;30.60;39.40
5639;DHT22;2841;44.526;11.360;2023-06-22T21:42:18;30.60;39.00
5639;DHT22;2841;44.526;11.360;2023-06-22T21:44:47;30.60;38.60
5639;DHT22;2841;44.526;11.360;2023-06-22T21:47:14;30.50;38.50
5639;DHT22;2841;44.526;11.360;2023-06-22T21:49:41;30.50;38.50
5639;DHT22;2841;44.526;11.360;2023-06-22T21:52:08;30.50;38.50
5639;DHT22;2841;44.526;11.360;2023-06-22T21:54:37;30.40;38.30
5639;DHT22;2841;44.526;11.360;2023-06-22T21:57:04;30.40;38.40
5639;DHT22;2841;44.526;11.360;2023-06-22T21:59:33;30.30;38.60
5639;DHT22;2841;44.526;11.360;2023-06-22T22:02:00;30.20;38.80
5639;DHT22;2841;44.526;11.360;2023-06-22T22:04:27;30.10;38.70
5639;DHT22;2841;44.526;11.360;2023-06-22T22:06:54;30.00;38.90
5639;DHT22;2841;44.526;11.360;2023-06-22T22:09:21;29.90;38.70
5639;DHT22;2841;44.526;11.360;2023-06-22T22:11:49;29.90;38.80
5639;DHT22;2841;44.526;11.360;2023-06-22T22:14:16;29.90;38.80
5639;DHT22;2841;44.526;11.360;2023-06-22T22:16:45;29.90;38.80
5639;DHT22;2841;44.526;11.360;2023-06-22T22:19:12;29.90;38.60
5639;DHT22;2841;44.526;11.360;2023-06-22T22:21:40;29.90;38.50
5639;DHT22;2841;44.526;11.360;2023-06-22T22:24:08;29.90;38.50
5639;DHT22;2841;44.526;11.360;2023-06-22T22:26:35;29.90;38.60
5639;DHT22;2841;44.526;11.360;2023-06-22T22:29:02;29.80;38.50
5639;DHT22;2841;44.526;11.360;2023-06-22T22:31:30;29.80;38.40
5639;DHT22;2841;44.526;11.360;2023-06-22T22:34:04;29.80;38.30
5639;DHT22;2841;44.526;11.360;2023-06-22T22:36:31;29.80;38.20
5639;DHT22;2841;44.526;11.360;2023-06-22T22:38:58;29.80;38.00
5639;DHT22;2841;44.526;11.360;2023-06-22T22:41:26;29.80;38.00
5639;DHT22;2841;44.526;11.360;2023-06-22T22:43:53;29.80;38.20
5639;DHT22;2841;44.526;11.360;2023-06-22T22:46:21;29.70;38.30
5639;DHT22;2841;44.526;11.360;2023-06-22T22:48:48;29.70;38.50
5639;DHT22;2841;44.526;11.360;2023-06-22T22:51:16;29.60;38.50
5639;DHT22;2841;44.526;11.360;2023-06-22T22:53:44;29.50;38.50
5639;DHT22;2841;44.526;11.360;2023-06-22T22:56:11;29.50;38.70
5639;DHT22;2841;44.526;11.360;2023-06-22T22:58:38;29.50;38.90
5639;DHT22;2841;44.526;11.360;2023-06-22T23:01:06;29.50;38.80
5639;DHT22;2841;44.526;11.360;2023-06-22T23:03:33;29.50;38.70
5639;DHT22;2841;44.526;11.360;2023-06-22T23:06:00;29.50;38.60
5639;DHT22;2841;44.526;11.360;2023-06-22T23:08:28;29.50;38.50
5639;DHT22;2841;44.526;11.360;2023-06-22T23:10:55;29.50;38.30
5639;DHT22;2841;44.526;11.360;2023-06-22T23:13:22;29.50;38.30
5639;DHT22;2841;44.526;11.360;2023-06-22T23:15:50;29.50;38.20
5639;DHT22;2841;44.526;11.360;2023-06-22T23:18:17;29.50;38.20
5639;DHT22;2841;44.526;11.360;2023-06-22T23:20:45;29.60;38.40
5639;DHT22;2841;44.526;11.360;2023-06-22T23:23:12;29.50;38.50
5639;DHT22;2841;44.526;11.360;2023-06-22T23:25:40;29.50;38.50
5639;DHT22;2841;44.526;11.360;2023-06-22T23:28:07;29.50;38.50
5639;DHT22;2841;44.526;11.360;2023-06-22T23:30:37;29.50;38.50
5639;DHT22;2841;44.526;11.360;2023-06-22T23:33:04;29.50;38.40
5639;DHT22;2841;44.526;11.360;2023-06-22T23:35:31;29.50;38.50
5639;DHT22;2841;44.526;11.360;2023-06-22T23:37:59;29.50;38.50
5639;DHT22;2841;44.526;11.360;2023-06-22T23:40:26;29.50;38.50
5639;DHT22;2841;44.526;11.360;2023-06-22T23:42:55;29.50;38.50
5639;DHT22;2841;44.526;11.360;2023-06-22T23:45:22;29.40;38.80
5639;DHT22;2841;44.526;11.360;2023-06-22T23:47:50;29.40;38.90
5639;DHT22;2841;44.526;11.360;2023-06-22T23:50:17;29.40;39.30
5639;DHT22;2841;44.526;11.360;2023-06-22T23:52:45;29.30;40.10
5639;DHT22;2841;44.526;11.360;2023-06-22T23:55:14;29.30;39.70
5639;DHT22;2841;44.526;11.360;2023-06-22T23:57:41;29.20;40.10
